CheckWX is a tool to help pilots better visualize weather data.  It is not intended as a substitute for an official pre-flight weather briefing.

10:14:22 UTC

KGAF METAR
Hutson Field Airport
Grafton, North Dakota, USA
Current

19 mins ago

KGAF 230955Z AUTO 01009KT 10SM OVC008 M06/M07 A3011 RMK AO2
Observed
Jan-23 @ 09:55 UTC
Wind
  • 010° at 9 KTS
Visibility
10 SM
Flight Rules
IFR
Cloud Levels
  • Overcast at 800' AGL
Temperature
-6°C / 21°F
Dewpoint
-7°C / 19°F
Humidity
93%
Altimeter
30.11" Hg
Pressure
1019.62 hPa
Previous

39 mins ago

KGAF 230935Z AUTO 02010KT 10SM BKN007 BKN018 OVC025 M06/M07 A3011 RMK AO2
Observed
Jan-23 @ 09:35 UTC
Wind
  • 020° at 10 KTS
Visibility
10 SM
Flight Rules
IFR
Cloud Levels
  • Broken at 700' AGL
  • Broken at 1,800' AGL
  • Overcast at 2,500' AGL
Temperature
-6°C / 21°F
Dewpoint
-7°C / 19°F
Humidity
93%
Altimeter
30.11" Hg
Pressure
1019.62 hPa
Previous

59 mins ago

KGAF 230915Z AUTO 02011KT 10SM BKN007 BKN018 OVC031 M07/M08 A3010 RMK AO2
Observed
Jan-23 @ 09:15 UTC
Wind
  • 020° at 11 KTS
Visibility
10 SM
Flight Rules
IFR
Cloud Levels
  • Broken at 700' AGL
  • Broken at 1,800' AGL
  • Overcast at 3,100' AGL
Temperature
-7°C / 19°F
Dewpoint
-8°C / 18°F
Humidity
93%
Altimeter
30.1" Hg
Pressure
1019.32 hPa